Time;durP1;ratioP1;P1;durP2;ratioP2;P2;SDS_P1;SDS_P2;PMS_P1;PMS_P2;Temp;Humidity;BMP_temperature;BMP_pressure;BME280_temperature;BME280_humidity;BME280_pressure;Samples;Min_cycle;Max_cycle;Signal;HPM_P1;HPM_P2
2023/12/20 00:01:08;;;;;;;22.65;20.92;;;;;;;;;;5063318;28;20435;-73
2023/12/20 00:03:40;;;;;;;19.13;17.75;;;;;;;;;;5062690;28;20067;-74
2023/12/20 00:06:11;;;;;;;22.15;20.88;;;;;;;;;;5063073;28;20419;-73
2023/12/20 00:08:43;;;;;;;20.48;19.13;;;;;;;;;;5061533;28;20044;-73
2023/12/20 00:11:14;;;;;;;26.25;24.33;;;;;;;;;;5062284;28;20048;-78
2023/12/20 00:13:46;;;;;;;20.85;19.38;;;;;;;;;;5063330;28;20059;-77
2023/12/20 00:16:19;;;;;;;24.33;22.70;;;;;;;;;;5061617;28;20055;-73
2023/12/20 00:18:49;;;;;;;20.10;18.75;;;;;;;;;;5062468;28;20040;-74
2023/12/20 00:21:20;;;;;;;19.73;18.30;;;;;;;;;;5062228;28;20044;-74
2023/12/20 00:23:51;;;;;;;23.80;22.30;;;;;;;;;;5063038;28;20053;-74
2023/12/20 00:26:21;;;;;;;20.45;19.05;;;;;;;;;;5062401;28;20590;-74
2023/12/20 00:28:51;;;;;;;22.65;21.30;;;;;;;;;;5063032;28;20047;-74
2023/12/20 00:31:22;;;;;;;22.95;21.42;;;;;;;;;;5062498;28;20040;-74
2023/12/20 00:33:53;;;;;;;18.10;16.73;;;;;;;;;;5062247;28;20439;-74
2023/12/20 00:36:23;;;;;;;20.30;19.00;;;;;;;;;;5062389;28;20435;-74
2023/12/20 00:38:53;;;;;;;16.58;15.52;;;;;;;;;;5062378;28;20032;-75
2023/12/20 00:41:24;;;;;;;19.20;18.10;;;;;;;;;;5062839;28;20533;-74
2023/12/20 00:43:56;;;;;;;22.85;21.13;;;;;;;;;;5062332;28;20510;-74
2023/12/20 00:46:27;;;;;;;26.15;24.42;;;;;;;;;;5062350;28;20056;-74
2023/12/20 00:48:57;;;;;;;27.83;26.02;;;;;;;;;;5063005;28;20056;-74
2023/12/20 00:51:28;;;;;;;22.40;21.00;;;;;;;;;;5063039;28;20071;-74
2023/12/20 00:53:59;;;;;;;19.77;18.40;;;;;;;;;;5061899;28;20550;-74
2023/12/20 00:56:30;;;;;;;25.15;23.52;;;;;;;;;;5062385;28;20044;-74
2023/12/20 00:59:00;;;;;;;27.02;25.58;;;;;;;;;;5062207;28;20049;-74
2023/12/20 01:01:33;;;;;;;23.65;22.25;;;;;;;;;;5060486;28;20060;-74
2023/12/20 01:04:04;;;;;;;21.00;19.67;;;;;;;;;;5062168;28;20044;-75
2023/12/20 01:06:35;;;;;;;31.30;29.30;;;;;;;;;;5061132;28;20052;-75
2023/12/20 01:09:07;;;;;;;25.00;23.35;;;;;;;;;;5055282;28;20059;-74
2023/12/20 01:11:38;;;;;;;24.70;23.27;;;;;;;;;;5062409;28;20507;-74
2023/12/20 01:14:11;;;;;;;24.08;22.63;;;;;;;;;;5061356;28;20052;-74
2023/12/20 01:16:42;;;;;;;21.75;20.00;;;;;;;;;;5062070;28;20052;-73
2023/12/20 01:19:14;;;;;;;18.35;17.33;;;;;;;;;;5061957;28;20621;-75
2023/12/20 01:21:44;;;;;;;19.02;17.85;;;;;;;;;;5042570;28;20048;-76
2023/12/20 01:24:16;;;;;;;20.90;19.67;;;;;;;;;;5041329;28;20041;-76
2023/12/20 01:26:46;;;;;;;22.38;20.85;;;;;;;;;;5039924;28;20044;-76
2023/12/20 01:29:16;;;;;;;22.15;20.45;;;;;;;;;;5041076;28;20677;-76
2023/12/20 01:31:47;;;;;;;21.65;19.83;;;;;;;;;;5041594;28;20637;-76
2023/12/20 01:34:19;;;;;;;21.50;19.73;;;;;;;;;;5040935;28;20076;-75
2023/12/20 01:36:49;;;;;;;20.83;19.55;;;;;;;;;;5041360;28;20045;-75
2023/12/20 01:39:20;;;;;;;19.92;18.55;;;;;;;;;;5041332;28;20049;-75
2023/12/20 01:41:59;;;;;;;24.48;22.65;;;;;;;;;;5041271;28;20049;-77
2023/12/20 01:44:31;;;;;;;28.88;27.20;;;;;;;;;;5042166;28;20076;-75
2023/12/20 01:47:01;;;;;;;20.90;19.67;;;;;;;;;;5041458;28;20416;-76
2023/12/20 01:49:32;;;;;;;19.98;18.83;;;;;;;;;;5039387;28;20060;-73
2023/12/20 01:52:03;;;;;;;20.98;19.58;;;;;;;;;;5041189;28;20049;-74
2023/12/20 01:54:37;;;;;;;19.30;17.85;;;;;;;;;;5040779;28;20508;-74
2023/12/20 01:57:08;;;;;;;20.40;19.10;;;;;;;;;;5040913;28;20053;-76
2023/12/20 01:59:40;;;;;;;27.15;25.60;;;;;;;;;;5041142;28;20045;-76
2023/12/20 02:02:12;;;;;;;25.60;24.13;;;;;;;;;;5040893;28;20064;-74
2023/12/20 02:04:45;;;;;;;23.45;22.08;;;;;;;;;;5041431;28;20048;-74
2023/12/20 02:07:16;;;;;;;27.40;25.73;;;;;;;;;;5041249;28;20041;-76
2023/12/20 02:09:47;;;;;;;30.40;28.50;;;;;;;;;;5040799;28;20141;-76
2023/12/20 02:12:18;;;;;;;29.48;27.60;;;;;;;;;;5039856;28;20057;-73
2023/12/20 02:14:50;;;;;;;27.27;25.60;;;;;;;;;;5041019;28;20049;-75
2023/12/20 02:17:21;;;;;;;25.35;23.83;;;;;;;;;;5040681;28;20750;-75
2023/12/20 02:19:51;;;;;;;25.73;24.10;;;;;;;;;;5041195;28;20045;-75
2023/12/20 02:22:22;;;;;;;22.92;21.60;;;;;;;;;;5041037;28;20044;-75
2023/12/20 02:24:53;;;;;;;26.70;25.00;;;;;;;;;;5041010;28;20496;-74
2023/12/20 02:27:24;;;;;;;25.73;24.23;;;;;;;;;;5041449;28;20060;-76
2023/12/20 02:29:54;;;;;;;23.75;22.35;;;;;;;;;;5041211;28;20119;-75
2023/12/20 02:32:26;;;;;;;23.25;21.98;;;;;;;;;;5043904;28;20048;-76
2023/12/20 02:34:58;;;;;;;20.65;19.38;;;;;;;;;;5045104;28;20041;-73
2023/12/20 02:37:28;;;;;;;23.23;21.52;;;;;;;;;;5044421;28;20045;-73
2023/12/20 02:39:59;;;;;;;24.60;23.20;;;;;;;;;;5044664;28;20495;-76
2023/12/20 02:42:30;;;;;;;27.92;26.25;;;;;;;;;;5045861;28;20052;-75
2023/12/20 02:45:00;;;;;;;22.67;21.38;;;;;;;;;;5044560;28;20423;-76
2023/12/20 02:47:31;;;;;;;24.83;23.45;;;;;;;;;;5044329;28;20045;-74
2023/12/20 02:50:01;;;;;;;29.58;27.67;;;;;;;;;;5044829;28;20048;-75
2023/12/20 02:52:32;;;;;;;31.35;29.58;;;;;;;;;;5045156;28;20418;-76
2023/12/20 02:55:03;;;;;;;25.65;23.70;;;;;;;;;;5044384;28;20041;-76
2023/12/20 02:57:36;;;;;;;26.00;24.42;;;;;;;;;;5044924;28;20056;-74
2023/12/20 03:00:07;;;;;;;26.23;24.60;;;;;;;;;;5044955;28;20044;-74
2023/12/20 03:02:38;;;;;;;24.58;23.23;;;;;;;;;;5044338;28;20056;-77
2023/12/20 03:05:10;;;;;;;24.00;22.65;;;;;;;;;;5043417;28;20049;-76
2023/12/20 03:07:43;;;;;;;24.92;23.45;;;;;;;;;;5042761;28;20451;-74
2023/12/20 03:10:14;;;;;;;27.17;25.50;;;;;;;;;;5043457;28;20053;-74
2023/12/20 03:12:56;;;;;;;22.20;20.70;;;;;;;;;;5044102;28;20049;-73
2023/12/20 03:15:27;;;;;;;23.77;22.50;;;;;;;;;;5043659;28;20059;-75
2023/12/20 03:17:58;;;;;;;21.85;20.45;;;;;;;;;;5043794;28;20045;-75
2023/12/20 03:20:33;;;;;;;23.33;22.08;;;;;;;;;;5043719;28;20048;-75
2023/12/20 03:23:05;;;;;;;19.33;18.27;;;;;;;;;;5044209;28;20049;-73
2023/12/20 03:25:35;;;;;;;24.08;22.70;;;;;;;;;;5043545;28;20044;-73
2023/12/20 03:28:06;;;;;;;23.42;21.83;;;;;;;;;;5042237;28;20053;-75
2023/12/20 03:30:37;;;;;;;22.50;21.10;;;;;;;;;;5042592;28;20049;-74
2023/12/20 03:33:07;;;;;;;19.65;18.50;;;;;;;;;;5044272;28;20701;-75
2023/12/20 03:35:39;;;;;;;20.27;19.02;;;;;;;;;;5042852;28;20065;-74
2023/12/20 03:38:09;;;;;;;28.83;26.85;;;;;;;;;;5043847;28;20053;-77
2023/12/20 03:40:39;;;;;;;20.98;19.77;;;;;;;;;;5043821;28;20056;-76
2023/12/20 03:43:10;;;;;;;24.80;23.35;;;;;;;;;;5041052;28;20053;-76
2023/12/20 03:45:41;;;;;;;26.50;24.90;;;;;;;;;;5043077;28;20049;-74
2023/12/20 03:48:12;;;;;;;24.15;22.55;;;;;;;;;;5042416;28;20045;-76
2023/12/20 03:50:42;;;;;;;25.40;23.42;;;;;;;;;;5043991;28;20052;-74
2023/12/20 03:53:13;;;;;;;24.30;22.27;;;;;;;;;;5044067;28;20052;-75
2023/12/20 03:55:44;;;;;;;22.92;21.10;;;;;;;;;;5043485;28;20057;-77
2023/12/20 03:58:14;;;;;;;25.42;22.55;;;;;;;;;;5043296;28;20051;-73
2023/12/20 04:00:44;;;;;;;25.73;24.02;;;;;;;;;;5043611;28;20057;-76
2023/12/20 04:03:16;;;;;;;24.77;23.08;;;;;;;;;;5042659;28;20115;-74
2023/12/20 04:05:48;;;;;;;23.23;21.48;;;;;;;;;;5043858;28;20053;-75
2023/12/20 04:08:18;;;;;;;22.15;20.55;;;;;;;;;;5042259;28;20416;-76
2023/12/20 04:10:52;;;;;;;19.92;18.70;;;;;;;;;;5042515;28;20048;-76
2023/12/20 04:13:22;;;;;;;23.33;21.90;;;;;;;;;;5042759;28;20072;-76
2023/12/20 04:15:53;;;;;;;23.65;22.27;;;;;;;;;;5042759;28;20057;-74
2023/12/20 04:18:23;;;;;;;22.13;20.83;;;;;;;;;;5043516;28;20056;-73
2023/12/20 04:20:54;;;;;;;21.63;20.23;;;;;;;;;;5043101;28;20044;-75
2023/12/20 04:23:26;;;;;;;23.75;21.98;;;;;;;;;;5040581;28;20049;-75
2023/12/20 04:25:57;;;;;;;22.60;21.08;;;;;;;;;;5042837;28;20041;-75
2023/12/20 04:28:30;;;;;;;21.85;20.05;;;;;;;;;;5042343;28;20072;-74
2023/12/20 04:31:00;;;;;;;20.55;19.30;;;;;;;;;;5042717;28;20053;-72
2023/12/20 04:33:31;;;;;;;23.23;21.88;;;;;;;;;;5043092;28;20060;-75
2023/12/20 04:36:03;;;;;;;20.80;19.40;;;;;;;;;;5042147;28;20052;-73
2023/12/20 04:38:33;;;;;;;21.80;20.58;;;;;;;;;;5041829;28;20048;-76
2023/12/20 04:41:03;;;;;;;23.33;22.00;;;;;;;;;;5042155;28;20049;-75
2023/12/20 04:43:34;;;;;;;22.90;21.10;;;;;;;;;;5040703;28;20427;-75
2023/12/20 04:46:05;;;;;;;22.42;21.13;;;;;;;;;;5042295;28;20041;-73
2023/12/20 04:48:36;;;;;;;21.40;20.05;;;;;;;;;;5042930;28;20052;-73
2023/12/20 04:51:08;;;;;;;24.17;22.45;;;;;;;;;;5041944;28;20033;-76
2023/12/20 04:53:38;;;;;;;19.00;17.25;;;;;;;;;;5042565;28;20068;-75
2023/12/20 04:56:10;;;;;;;23.30;21.23;;;;;;;;;;5042199;28;20052;-73
2023/12/20 04:58:40;;;;;;;22.80;21.38;;;;;;;;;;5043923;28;20806;-75
2023/12/20 05:01:10;;;;;;;25.98;24.48;;;;;;;;;;5042263;28;20080;-75
2023/12/20 05:03:41;;;;;;;25.52;24.02;;;;;;;;;;5042077;28;20052;-75
2023/12/20 05:06:13;;;;;;;25.08;23.38;;;;;;;;;;5041904;28;20052;-75
2023/12/20 05:08:43;;;;;;;25.80;24.20;;;;;;;;;;5041879;28;20052;-74
2023/12/20 05:11:15;;;;;;;27.02;25.13;;;;;;;;;;5041962;28;20055;-72
2023/12/20 05:13:46;;;;;;;26.23;24.70;;;;;;;;;;5040505;28;20527;-75
2023/12/20 05:16:20;;;;;;;25.23;23.50;;;;;;;;;;5042015;28;20053;-73
2023/12/20 05:18:52;;;;;;;23.48;21.85;;;;;;;;;;5041939;28;20508;-72
2023/12/20 05:21:23;;;;;;;28.25;26.35;;;;;;;;;;5041911;28;20049;-75
2023/12/20 05:23:54;;;;;;;23.50;22.08;;;;;;;;;;5041926;28;20060;-75
2023/12/20 05:26:25;;;;;;;27.27;25.52;;;;;;;;;;5042073;28;20049;-73
2023/12/20 05:28:55;;;;;;;27.55;25.92;;;;;;;;;;5041692;28;20499;-76
2023/12/20 05:31:26;;;;;;;25.80;24.17;;;;;;;;;;5042020;28;20408;-74
2023/12/20 05:33:57;;;;;;;27.73;25.83;;;;;;;;;;5041585;28;20077;-73
2023/12/20 05:36:29;;;;;;;29.73;27.67;;;;;;;;;;5041328;28;20053;-76
2023/12/20 05:38:59;;;;;;;27.13;25.27;;;;;;;;;;5041860;28;20049;-74
2023/12/20 05:41:29;;;;;;;29.20;26.92;;;;;;;;;;5040926;28;20532;-73
2023/12/20 05:43:59;;;;;;;26.70;24.88;;;;;;;;;;5041609;28;20404;-76
2023/12/20 05:46:30;;;;;;;27.42;25.55;;;;;;;;;;5041305;28;20056;-73
2023/12/20 05:49:02;;;;;;;23.73;21.90;;;;;;;;;;5042148;28;20052;-73
2023/12/20 05:51:32;;;;;;;26.38;24.65;;;;;;;;;;5041318;28;20605;-74
2023/12/20 05:54:02;;;;;;;34.22;32.22;;;;;;;;;;5041326;28;20052;-74
2023/12/20 05:56:33;;;;;;;29.90;27.67;;;;;;;;;;5041971;28;20059;-76
2023/12/20 05:59:04;;;;;;;25.23;23.58;;;;;;;;;;5040367;28;20064;-74
2023/12/20 06:01:34;;;;;;;25.35;23.67;;;;;;;;;;5041210;28;20064;-76
2023/12/20 06:04:04;;;;;;;25.15;23.65;;;;;;;;;;5041170;28;20053;-74
2023/12/20 06:06:35;;;;;;;24.45;22.80;;;;;;;;;;5041663;28;20045;-75
2023/12/20 06:09:06;;;;;;;23.38;21.92;;;;;;;;;;5045184;28;20064;-75
2023/12/20 06:11:36;;;;;;;27.17;25.52;;;;;;;;;;5044774;28;20649;-75
2023/12/20 06:14:06;;;;;;;23.85;22.30;;;;;;;;;;5045000;28;20060;-73
2023/12/20 06:16:37;;;;;;;25.45;23.35;;;;;;;;;;5045534;28;20053;-74
2023/12/20 06:19:09;;;;;;;36.58;34.38;;;;;;;;;;5045548;28;20070;-75
2023/12/20 06:21:39;;;;;;;24.58;22.88;;;;;;;;;;5043150;28;20045;-76
2023/12/20 06:24:13;;;;;;;19.38;17.90;;;;;;;;;;5045111;28;20049;-75
2023/12/20 06:26:45;;;;;;;23.88;22.13;;;;;;;;;;5044680;28;20049;-75
2023/12/20 06:29:16;;;;;;;24.65;23.10;;;;;;;;;;5044995;28;20515;-75
2023/12/20 06:31:47;;;;;;;21.52;19.90;;;;;;;;;;5045411;28;20049;-74
2023/12/20 06:34:18;;;;;;;22.52;21.00;;;;;;;;;;5044171;28;20049;-74
2023/12/20 06:36:49;;;;;;;24.63;22.95;;;;;;;;;;5044442;28;20052;-74
2023/12/20 06:39:20;;;;;;;24.38;22.52;;;;;;;;;;5044964;28;20048;-75
2023/12/20 06:41:51;;;;;;;23.60;22.15;;;;;;;;;;5044678;28;20401;-75
2023/12/20 06:44:21;;;;;;;26.40;24.70;;;;;;;;;;5044439;28;20511;-75
2023/12/20 06:46:52;;;;;;;26.17;24.38;;;;;;;;;;5044697;28;20045;-74
2023/12/20 06:49:23;;;;;;;28.25;26.42;;;;;;;;;;5045012;28;20056;-72
2023/12/20 06:51:54;;;;;;;30.52;28.48;;;;;;;;;;5044478;28;20053;-75
2023/12/20 06:54:25;;;;;;;27.70;25.58;;;;;;;;;;5044396;28;20487;-75
2023/12/20 06:56:56;;;;;;;26.67;24.88;;;;;;;;;;5044297;28;20072;-72
2023/12/20 06:59:27;;;;;;;29.40;26.77;;;;;;;;;;5043835;28;20045;-75
2023/12/20 07:01:57;;;;;;;24.63;23.00;;;;;;;;;;5044338;28;20057;-76
2023/12/20 07:04:27;;;;;;;34.33;31.85;;;;;;;;;;5044286;28;20490;-75
2023/12/20 07:07:00;;;;;;;28.40;26.25;;;;;;;;;;5044609;28;20060;-75
2023/12/20 07:09:31;;;;;;;30.00;27.70;;;;;;;;;;5043938;28;20060;-75
2023/12/20 07:12:02;;;;;;;26.63;24.08;;;;;;;;;;5043956;28;20045;-76
2023/12/20 07:14:32;;;;;;;30.13;28.10;;;;;;;;;;5044677;28;20488;-72
2023/12/20 07:17:03;;;;;;;28.63;26.73;;;;;;;;;;5047321;28;20049;-75
2023/12/20 07:19:36;;;;;;;32.53;29.98;;;;;;;;;;5045011;28;20052;-73
2023/12/20 07:22:07;;;;;;;31.83;29.70;;;;;;;;;;5044881;28;20053;-72
2023/12/20 07:24:39;;;;;;;29.95;27.95;;;;;;;;;;5043967;28;20041;-73
2023/12/20 07:27:10;;;;;;;31.63;29.42;;;;;;;;;;5044338;28;20503;-72
2023/12/20 07:29:42;;;;;;;31.23;29.02;;;;;;;;;;5044381;28;20041;-74
2023/12/20 07:32:12;;;;;;;31.95;29.65;;;;;;;;;;5044456;28;20053;-75
2023/12/20 07:34:42;;;;;;;32.25;29.95;;;;;;;;;;5043883;28;20041;-75
2023/12/20 07:37:13;;;;;;;32.90;30.67;;;;;;;;;;5043946;28;20551;-75
2023/12/20 07:39:45;;;;;;;31.17;29.15;;;;;;;;;;5044368;28;20049;-74
2023/12/20 07:42:15;;;;;;;31.98;29.83;;;;;;;;;;5043988;28;20053;-76
2023/12/20 07:44:45;;;;;;;33.05;30.85;;;;;;;;;;5044578;28;20053;-73
2023/12/20 07:47:21;;;;;;;39.25;36.65;;;;;;;;;;5043846;28;20045;-74
2023/12/20 07:49:52;;;;;;;30.55;28.55;;;;;;;;;;5043575;28;20049;-74
2023/12/20 07:52:23;;;;;;;33.88;31.35;;;;;;;;;;5043959;28;20056;-76
2023/12/20 07:54:54;;;;;;;32.40;30.30;;;;;;;;;;5043854;28;20131;-76
2023/12/20 07:57:25;;;;;;;30.98;29.05;;;;;;;;;;5043412;28;20041;-75
2023/12/20 07:59:56;;;;;;;30.35;27.92;;;;;;;;;;5043479;28;20045;-73
2023/12/20 08:02:26;;;;;;;31.25;28.88;;;;;;;;;;5043488;28;20052;-75
2023/12/20 08:04:56;;;;;;;32.38;29.77;;;;;;;;;;5043363;28;20048;-76
2023/12/20 08:07:28;;;;;;;32.05;29.77;;;;;;;;;;5042834;28;20045;-73
2023/12/20 08:09:59;;;;;;;37.60;34.47;;;;;;;;;;5043662;28;20053;-75
2023/12/20 08:12:29;;;;;;;31.45;29.38;;;;;;;;;;5044055;28;20044;-74
2023/12/20 08:14:59;;;;;;;33.33;31.17;;;;;;;;;;5044612;28;20045;-73
2023/12/20 08:17:30;;;;;;;38.40;35.40;;;;;;;;;;5042673;28;20052;-72
2023/12/20 08:20:01;;;;;;;34.65;32.22;;;;;;;;;;5042407;28;20053;-75
2023/12/20 08:22:32;;;;;;;32.97;30.15;;;;;;;;;;5043304;28;20815;-73
2023/12/20 08:25:02;;;;;;;34.60;31.88;;;;;;;;;;5044083;28;20045;-74
2023/12/20 08:27:33;;;;;;;26.33;24.13;;;;;;;;;;5042948;28;20057;-76
2023/12/20 08:30:06;;;;;;;27.08;24.90;;;;;;;;;;5044219;28;20412;-76
2023/12/20 08:32:36;;;;;;;31.02;28.15;;;;;;;;;;5043685;28;20056;-75
2023/12/20 08:35:07;;;;;;;34.47;31.63;;;;;;;;;;5043666;28;20419;-75
2023/12/20 08:37:38;;;;;;;28.42;25.90;;;;;;;;;;5043274;28;20059;-75
2023/12/20 08:40:10;;;;;;;34.17;30.80;;;;;;;;;;5042916;28;20049;-73
2023/12/20 08:42:40;;;;;;;33.45;30.95;;;;;;;;;;5043864;28;20033;-75
2023/12/20 08:45:10;;;;;;;33.92;31.52;;;;;;;;;;5042685;28;20056;-74
2023/12/20 08:47:44;;;;;;;39.58;36.58;;;;;;;;;;5042308;28;20512;-74
2023/12/20 08:50:15;;;;;;;39.55;36.25;;;;;;;;;;5041892;28;20531;-72
2023/12/20 08:52:46;;;;;;;38.97;35.40;;;;;;;;;;5042244;28;20515;-72
2023/12/20 08:55:18;;;;;;;41.42;37.80;;;;;;;;;;5042217;28;20096;-75
2023/12/20 08:57:50;;;;;;;40.20;36.25;;;;;;;;;;5042700;28;20059;-73
2023/12/20 09:00:24;;;;;;;31.40;28.23;;;;;;;;;;5042220;28;20041;-73
2023/12/20 09:02:55;;;;;;;31.55;28.83;;;;;;;;;;5041656;28;20044;-76
2023/12/20 09:05:25;;;;;;;32.50;29.60;;;;;;;;;;5041769;28;20056;-74
2023/12/20 09:07:56;;;;;;;35.38;32.28;;;;;;;;;;5042163;28;20045;-74
2023/12/20 09:10:27;;;;;;;32.72;29.50;;;;;;;;;;5040533;28;20500;-76
2023/12/20 09:12:58;;;;;;;34.40;31.00;;;;;;;;;;5042800;28;20510;-76
2023/12/20 09:15:30;;;;;;;29.27;26.58;;;;;;;;;;5042195;28;20412;-75
2023/12/20 09:18:05;;;;;;;28.63;25.95;;;;;;;;;;5040409;28;20067;-75
2023/12/20 09:20:37;;;;;;;32.80;29.50;;;;;;;;;;5042256;28;20047;-75
2023/12/20 09:23:12;;;;;;;30.77;28.25;;;;;;;;;;5041997;28;20041;-79
2023/12/20 09:25:42;;;;;;;34.20;31.02;;;;;;;;;;5041993;28;20056;-75
2023/12/20 09:28:13;;;;;;;37.05;33.72;;;;;;;;;;5042288;28;20045;-74
2023/12/20 09:30:45;;;;;;;35.13;32.35;;;;;;;;;;5042101;28;20507;-76
2023/12/20 09:33:16;;;;;;;33.72;30.38;;;;;;;;;;5041773;28;20057;-75
2023/12/20 09:35:47;;;;;;;34.95;31.95;;;;;;;;;;5041091;28;20417;-74
2023/12/20 09:38:18;;;;;;;35.55;32.10;;;;;;;;;;5041734;28;20103;-74
2023/12/20 09:40:50;;;;;;;39.00;35.60;;;;;;;;;;5039765;28;20053;-76
2023/12/20 09:43:24;;;;;;;34.95;31.90;;;;;;;;;;5041986;28;20053;-73
2023/12/20 09:45:56;;;;;;;33.00;30.05;;;;;;;;;;5041223;28;20059;-75
2023/12/20 09:48:28;;;;;;;34.33;31.77;;;;;;;;;;5041468;28;20480;-72
2023/12/20 09:50:59;;;;;;;38.88;34.65;;;;;;;;;;5041779;28;20049;-74
2023/12/20 09:53:32;;;;;;;28.33;26.42;;;;;;;;;;5041020;28;20416;-76
2023/12/20 09:56:03;;;;;;;29.30;27.15;;;;;;;;;;5041313;28;20048;-73
2023/12/20 09:58:39;;;;;;;29.45;27.23;;;;;;;;;;5041516;28;20056;-75
2023/12/20 10:01:11;;;;;;;30.15;27.45;;;;;;;;;;5040833;28;20056;-76
2023/12/20 10:03:41;;;;;;;28.23;26.08;;;;;;;;;;5041266;28;20049;-74
2023/12/20 10:06:12;;;;;;;29.55;27.08;;;;;;;;;;5041576;28;20500;-73
2023/12/20 10:08:44;;;;;;;52.47;48.75;;;;;;;;;;5041017;28;20048;-74
2023/12/20 10:11:15;;;;;;;42.85;39.72;;;;;;;;;;5041372;28;20049;-77
2023/12/20 10:13:48;;;;;;;45.20;41.47;;;;;;;;;;5040999;28;20523;-75
2023/12/20 10:16:25;;;;;;;36.70;33.88;;;;;;;;;;5040749;28;20776;-75
2023/12/20 10:18:56;;;;;;;46.25;42.42;;;;;;;;;;5040531;28;20174;-75
2023/12/20 10:21:27;;;;;;;43.05;40.17;;;;;;;;;;5040790;28;20526;-73
2023/12/20 10:23:58;;;;;;;42.90;39.72;;;;;;;;;;5039930;28;20045;-73
2023/12/20 10:26:29;;;;;;;34.67;32.15;;;;;;;;;;5040924;28;20697;-74
2023/12/20 10:29:03;;;;;;;35.03;32.30;;;;;;;;;;5041410;28;20056;-73
2023/12/20 10:31:36;;;;;;;31.50;28.85;;;;;;;;;;5040734;28;20783;-76
2023/12/20 10:34:06;;;;;;;39.15;36.30;;;;;;;;;;5041895;28;20041;-74
2023/12/20 10:36:36;;;;;;;90.68;81.65;;;;;;;;;;5041481;28;20049;-79
2023/12/20 10:39:14;;;;;;;36.05;33.20;;;;;;;;;;5040853;28;20044;-74
2023/12/20 10:41:48;;;;;;;30.88;28.23;;;;;;;;;;5039881;28;20056;-74
2023/12/20 10:44:19;;;;;;;37.70;34.35;;;;;;;;;;5041293;28;20056;-83
2023/12/20 10:46:51;;;;;;;31.83;29.38;;;;;;;;;;5040374;28;20049;-77
2023/12/20 10:49:22;;;;;;;23.60;21.30;;;;;;;;;;5041045;28;20424;-75
2023/12/20 10:51:57;;;;;;;20.17;18.35;;;;;;;;;;5042416;28;20420;-75
2023/12/20 10:54:28;;;;;;;;;;;;;;;;;;5045434;28;20515;-76
2023/12/20 10:56:59;;;;;;;28.75;21.67;;;;;;;;;;5044549;28;19936;-79
2023/12/20 10:59:34;;;;;;;25.77;23.10;;;;;;;;;;5043708;28;20045;-74
2023/12/20 11:02:07;;;;;;;21.50;19.67;;;;;;;;;;5043203;28;20420;-74
2023/12/20 11:05:05;;;;;;;23.80;21.65;;;;;;;;;;5044589;28;20045;-72
2023/12/20 11:07:53;;;;;;;23.67;20.38;;;;;;;;;;5043797;28;20430;-76
2023/12/20 11:10:38;;;;;;;24.27;22.25;;;;;;;;;;5045097;28;20051;-77
2023/12/20 11:13:32;;;;;;;36.30;33.85;;;;;;;;;;5044039;28;20514;-74
2023/12/20 11:16:03;;;;;;;21.02;19.63;;;;;;;;;;5043917;28;20076;-74
2023/12/20 11:18:34;;;;;;;22.27;20.58;;;;;;;;;;5043772;28;20052;-73
2023/12/20 11:21:07;;;;;;;22.73;19.27;;;;;;;;;;5044373;28;20037;-74
2023/12/20 11:23:38;;;;;;;32.35;29.95;;;;;;;;;;5043755;28;20056;-74
2023/12/20 11:26:08;;;;;;;20.92;19.48;;;;;;;;;;5044109;28;20041;-74
2023/12/20 11:28:38;;;;;;;22.77;20.73;;;;;;;;;;5043987;28;20041;-74
2023/12/20 11:31:14;;;;;;;22.73;20.80;;;;;;;;;;5042212;28;20045;-79
2023/12/20 11:33:48;;;;;;;21.50;19.80;;;;;;;;;;5043563;28;20045;-72
2023/12/20 11:36:26;;;;;;;23.45;21.67;;;;;;;;;;5043207;28;20519;-73
2023/12/20 11:38:59;;;;;;;22.33;20.42;;;;;;;;;;5043618;28;20860;-76
2023/12/20 11:41:33;;;;;;;20.33;18.73;;;;;;;;;;5044195;28;20071;-75
2023/12/20 11:44:06;;;;;;;21.23;19.50;;;;;;;;;;5044030;28;20045;-75
2023/12/20 11:46:37;;;;;;;29.38;27.33;;;;;;;;;;5043691;28;20041;-75
2023/12/20 11:49:06;;;;;;;24.02;22.23;;;;;;;;;;5043807;28;20052;-76
2023/12/20 11:51:44;;;;;;;26.00;24.00;;;;;;;;;;5042650;28;20538;-76
2023/12/20 11:54:15;;;;;;;49.13;45.78;;;;;;;;;;5043092;28;20500;-76
2023/12/20 11:56:47;;;;;;;59.08;55.63;;;;;;;;;;5043538;28;20037;-76
2023/12/20 11:59:18;;;;;;;22.48;20.80;;;;;;;;;;5043702;28;20048;-77
2023/12/20 12:01:55;;;;;;;25.10;23.40;;;;;;;;;;5043184;28;20053;-75
2023/12/20 12:04:28;;;;;;;27.55;25.67;;;;;;;;;;5042549;28;20053;-75
2023/12/20 12:06:58;;;;;;;23.77;21.77;;;;;;;;;;5043640;28;20044;-76
2023/12/20 12:09:28;;;;;;;20.38;18.63;;;;;;;;;;5042140;28;20060;-75
2023/12/20 12:12:01;;;;;;;27.60;25.80;;;;;;;;;;5043202;28;20037;-76
2023/12/20 12:14:35;;;;;;;22.27;20.50;;;;;;;;;;5043835;28;20045;-76
2023/12/20 12:17:10;;;;;;;25.42;23.70;;;;;;;;;;5042262;28;20545;-76
2023/12/20 12:19:43;;;;;;;21.25;19.90;;;;;;;;;;5043480;28;20056;-75
2023/12/20 12:22:19;;;;;;;21.95;20.50;;;;;;;;;;5041665;28;20060;-75
2023/12/20 12:24:51;;;;;;;21.05;18.83;;;;;;;;;;5043433;28;20052;-75
2023/12/20 12:27:24;;;;;;;21.00;19.25;;;;;;;;;;5043079;28;20052;-75
2023/12/20 12:30:20;;;;;;;16.13;15.10;;;;;;;;;;5042789;28;20801;-75
2023/12/20 12:32:52;;;;;;;18.67;17.17;;;;;;;;;;5041096;28;20061;-75
2023/12/20 12:35:24;;;;;;;16.05;14.80;;;;;;;;;;5043309;28;20044;-75
2023/12/20 12:37:57;;;;;;;29.08;27.08;;;;;;;;;;5043312;28;20053;-75
2023/12/20 12:40:27;;;;;;;21.40;19.52;;;;;;;;;;5025261;28;20393;-75
2023/12/20 12:42:58;;;;;;;17.15;15.82;;;;;;;;;;5042326;28;20423;-74
2023/12/20 12:45:30;;;;;;;21.65;20.13;;;;;;;;;;5043078;28;20496;-75
2023/12/20 12:48:02;;;;;;;16.88;15.30;;;;;;;;;;5042559;28;20048;-76
2023/12/20 12:50:32;;;;;;;17.90;16.55;;;;;;;;;;5042594;28;20056;-75
2023/12/20 12:53:02;;;;;;;22.83;21.13;;;;;;;;;;5042525;28;20056;-76
2023/12/20 12:55:36;;;;;;;20.33;19.05;;;;;;;;;;5041806;28;20041;-75
2023/12/20 12:58:06;;;;;;;19.05;17.52;;;;;;;;;;5042552;28;20393;-74
2023/12/20 13:00:39;;;;;;;15.85;14.43;;;;;;;;;;5042092;28;20400;-76
2023/12/20 13:03:10;;;;;;;28.23;25.63;;;;;;;;;;5043041;28;20064;-76
2023/12/20 13:05:42;;;;;;;18.52;17.17;;;;;;;;;;5042052;28;20102;-74
2023/12/20 13:08:16;;;;;;;22.73;21.10;;;;;;;;;;5042493;28;20044;-75
2023/12/20 13:10:46;;;;;;;18.27;16.90;;;;;;;;;;5042183;28;20519;-76
2023/12/20 13:13:16;;;;;;;18.40;17.10;;;;;;;;;;5041141;28;20055;-76
2023/12/20 13:15:51;;;;;;;38.05;34.97;;;;;;;;;;5042056;28;20045;-76
2023/12/20 13:18:23;;;;;;;21.13;19.20;;;;;;;;;;5040136;28;20804;-76
2023/12/20 13:20:54;;;;;;;46.72;42.97;;;;;;;;;;5042308;28;20041;-76
2023/12/20 13:23:24;;;;;;;16.10;15.07;;;;;;;;;;5041927;28;20052;-76
2023/12/20 13:25:55;;;;;;;17.08;15.48;;;;;;;;;;5042220;28;20518;-73
2023/12/20 13:28:26;;;;;;;17.92;16.52;;;;;;;;;;5042050;28;20049;-75
2023/12/20 13:30:56;;;;;;;17.13;15.82;;;;;;;;;;5042926;28;20055;-75
2023/12/20 13:33:27;;;;;;;18.10;16.73;;;;;;;;;;5042296;28;20044;-75
2023/12/20 13:35:58;;;;;;;15.95;14.75;;;;;;;;;;5040287;28;20447;-75
2023/12/20 13:38:31;;;;;;;15.10;14.10;;;;;;;;;;5041943;28;20048;-81
2023/12/20 13:41:01;;;;;;;21.10;19.40;;;;;;;;;;5040622;28;20419;-77
2023/12/20 13:43:32;;;;;;;14.82;13.90;;;;;;;;;;5042123;28;20052;-75
2023/12/20 13:46:03;;;;;;;17.05;15.82;;;;;;;;;;5042039;28;20052;-74
2023/12/20 13:48:35;;;;;;;17.52;16.27;;;;;;;;;;5042319;28;20493;-76
2023/12/20 13:51:05;;;;;;;23.27;21.40;;;;;;;;;;5040576;28;20053;-75
2023/12/20 13:53:36;;;;;;;23.42;21.60;;;;;;;;;;5040113;28;20428;-75
2023/12/20 13:56:07;;;;;;;14.38;13.13;;;;;;;;;;5042757;28;20408;-75
2023/12/20 13:58:39;;;;;;;20.83;19.05;;;;;;;;;;5042187;28;20056;-76
2023/12/20 14:01:11;;;;;;;20.17;18.75;;;;;;;;;;5041858;28;20064;-76
2023/12/20 14:03:42;;;;;;;21.23;19.42;;;;;;;;;;5042209;28;20056;-76
2023/12/20 14:06:14;;;;;;;25.88;23.92;;;;;;;;;;5042055;28;20059;-75
2023/12/20 14:08:45;;;;;;;27.42;25.20;;;;;;;;;;5042328;28;20049;-75
2023/12/20 14:11:15;;;;;;;20.33;18.75;;;;;;;;;;5040349;28;20056;-75
2023/12/20 14:13:46;;;;;;;18.67;17.05;;;;;;;;;;5041564;28;20059;-76
2023/12/20 14:16:17;;;;;;;16.20;15.00;;;;;;;;;;5039527;28;20064;-76
2023/12/20 14:18:47;;;;;;;23.80;21.90;;;;;;;;;;5041596;28;20049;-75
2023/12/20 14:21:19;;;;;;;17.70;16.27;;;;;;;;;;5042378;28;20381;-76
2023/12/20 14:23:51;;;;;;;16.10;15.00;;;;;;;;;;5042179;28;20407;-74
2023/12/20 14:26:22;;;;;;;18.77;17.17;;;;;;;;;;5041418;28;20040;-76
2023/12/20 14:28:53;;;;;;;22.13;20.35;;;;;;;;;;5044546;28;20412;-76
2023/12/20 14:31:24;;;;;;;22.48;20.35;;;;;;;;;;5044938;28;20048;-75
2023/12/20 14:33:54;;;;;;;16.67;15.23;;;;;;;;;;5045074;28;20044;-76
2023/12/20 14:36:25;;;;;;;13.90;12.57;;;;;;;;;;5045535;28;20393;-79
2023/12/20 14:38:59;;;;;;;20.25;18.73;;;;;;;;;;5045302;28;20056;-75
2023/12/20 14:41:29;;;;;;;19.85;18.35;;;;;;;;;;5045251;28;20085;-74
2023/12/20 14:44:01;;;;;;;16.88;15.23;;;;;;;;;;5045190;28;20048;-74